Wetterstation Vordersexau
Wetterdaten: Woche 09.02.15 - 15.02.15 (KW7)
Datum Zeit Temp. A. Feuchte A. Luftdruck Regen Wind Richtung Taupunkt Windchill Windben
09.02.2015 00:00 -4,4 C 87 % 1029,0 hPa 0,0 l/m 19,4 km/h SO -6,2 C -15,0 C 10,8 km/h
09.02.2015 01:00 -3,9 C 87 % 1028,8 hPa 0,0 l/m 0,0 km/h O-SO -5,7 C -3,9 C 0,0 km/h
09.02.2015 02:00 -3,6 C 87 % 1029,0 hPa 0,0 l/m 0,0 km/h O -5,4 C -3,6 C 0,0 km/h
09.02.2015 03:00 -3,3 C 87 % 1029,0 hPa 0,0 l/m 0,0 km/h SO -5,1 C -3,3 C 0,0 km/h
09.02.2015 04:00 -2,9 C 87 % 1029,4 hPa 0,0 l/m 0,0 km/h SO -4,8 C -2,9 C 0,0 km/h
09.02.2015 05:00 -2,9 C 87 % 1029,9 hPa 0,0 l/m 0,0 km/h SO -4,8 C -2,9 C 0,0 km/h
09.02.2015 06:00 -2,6 C 87 % 1029,6 hPa 0,0 l/m 0,0 km/h SO -4,5 C -2,6 C 0,0 km/h
09.02.2015 07:00 -2,2 C 87 % 1029,9 hPa 0,0 l/m 0,0 km/h SO -4,1 C -2,2 C 0,0 km/h
09.02.2015 08:00 -1,2 C 87 % 1029,5 hPa 0,0 l/m 0,0 km/h SO -3,1 C -1,2 C 0,0 km/h
09.02.2015 09:00 0,4 C 86 % 1029,6 hPa 0,0 l/m 0,0 km/h SO -1,7 C 0,4 C 0,0 km/h
09.02.2015 10:00 2,6 C 81 % 1029,4 hPa 0,0 l/m 0,0 km/h W-SW -0,3 C 2,6 C 0,0 km/h
09.02.2015 11:00 2,9 C 75 % 1029,3 hPa 0,0 l/m 0,0 km/h W -1,1 C 2,9 C 0,0 km/h
09.02.2015 12:00 5,4 C 64 % 1028,6 hPa 0,8 l/m 1,3 km/h W-NW -0,9 C 5,4 C 0,7 km/h
09.02.2015 13:00 4,1 C 61 % 1028,3 hPa 0,0 l/m 0,0 km/h N -2,7 C 4,1 C 0,0 km/h
09.02.2015 14:00 3,9 C 63 % 1027,8 hPa 0,0 l/m 0,0 km/h N -2,5 C 3,9 C 0,0 km/h
09.02.2015 15:00 3,7 C 65 % 1027,8 hPa 0,0 l/m 0,0 km/h N-NO -2,3 C 3,7 C 0,0 km/h
09.02.2015 16:00 2,5 C 69 % 1028,3 hPa 0,0 l/m 0,0 km/h O-NO -2,6 C 2,5 C 0,0 km/h
09.02.2015 17:00 1,5 C 71 % 1028,1 hPa 0,0 l/m 0,0 km/h O-NO -3,2 C 1,5 C 0,0 km/h
09.02.2015 18:00 0,9 C 74 % 1028,2 hPa 0,0 l/m 0,0 km/h O-NO -3,2 C 0,9 C 0,0 km/h
09.02.2015 19:00 0,9 C 77 % 1028,5 hPa 0,0 l/m 0,0 km/h O-NO -2,7 C 0,9 C 0,0 km/h
09.02.2015 20:00 0,8 C 79 % 1028,5 hPa 0,0 l/m 0,0 km/h O-NO -2,4 C 0,8 C 0,0 km/h
09.02.2015 21:00 0,8 C 80 % 1028,5 hPa 0,0 l/m 0,0 km/h O -2,2 C 0,8 C 0,0 km/h
09.02.2015 22:00 0,9 C 81 % 1028,5 hPa 0,0 l/m 0,0 km/h O -2,0 C 0,9 C 0,0 km/h
09.02.2015 23:00 0,8 C 81 % 1028,6 hPa 0,0 l/m 0,0 km/h O -2,1 C 0,8 C 0,0 km/h
10.02.2015 00:00 0,9 C 82 % 1028,3 hPa 0,0 l/m 0,0 km/h N-NO -1,8 C 0,9 C 0,0 km/h
10.02.2015 01:00 0,8 C 82 % 1027,8 hPa 0,0 l/m 0,0 km/h N-NO -1,9 C 0,8 C 0,0 km/h
10.02.2015 02:00 0,1 C 83 % 1027,7 hPa 0,0 l/m 0,0 km/h SO -2,4 C 0,1 C 0,0 km/h
10.02.2015 03:00 -0,6 C 84 % 1027,0 hPa 0,0 l/m 0,0 km/h N-NO -3,0 C -0,6 C 0,0 km/h
10.02.2015 04:00 0,1 C 85 % 1027,2 hPa 0,0 l/m 0,0 km/h N-NO -2,1 C 0,1 C 0,0 km/h
10.02.2015 05:00 -0,1 C 86 % 1027,6 hPa 0,0 l/m 0,0 km/h N-NO -2,2 C -0,1 C 0,0 km/h
10.02.2015 06:00 -0,7 C 86 % 1027,1 hPa 0,0 l/m 0,0 km/h N-NO -2,7 C -0,7 C 0,0 km/h
10.02.2015 07:00 -0,1 C 86 % 1027,6 hPa 0,0 l/m 0,0 km/h N-NO -2,2 C -0,1 C 0,0 km/h
10.02.2015 08:00 0,4 C 86 % 1027,8 hPa 0,0 l/m 0,0 km/h N -1,7 C 0,4 C 0,0 km/h
10.02.2015 09:00 1,9 C 86 % 1027,9 hPa 0,0 l/m 0,0 km/h N -0,2 C 1,9 C 0,0 km/h
10.02.2015 10:00 4,0 C 82 % 1027,9 hPa 0,0 l/m 0,0 km/h W-NW 1,2 C 4,0 C 0,0 km/h
10.02.2015 11:00 7,8 C 71 % 1027,4 hPa 0,0 l/m 0,0 km/h W-NW 2,9 C 7,8 C 0,0 km/h
10.02.2015 12:00 10,8 C 65 % 1026,5 hPa 0,0 l/m 0,0 km/h W 4,5 C 10,8 C 0,0 km/h
10.02.2015 13:00 11,9 C 58 % 1025,5 hPa 0,0 l/m 0,0 km/h O 3,9 C 11,9 C 0,0 km/h
10.02.2015 14:00 15,1 C 48 % 1024,8 hPa 0,0 l/m 0,0 km/h N-NO 4,2 C 15,1 C 0,0 km/h
10.02.2015 15:00 16,4 C 45 % 1024,5 hPa 0,0 l/m 0,0 km/h N-NO 4,4 C 16,4 C 0,0 km/h
10.02.2015 16:00 14,9 C 44 % 1024,7 hPa 0,0 l/m 0,0 km/h N-NO 2,8 C 14,9 C 0,0 km/h
10.02.2015 17:00 4,9 C 59 % 1024,6 hPa 0,0 l/m 0,0 km/h N-NO -2,4 C 4,9 C 0,0 km/h
10.02.2015 18:00 1,0 C 71 % 1025,2 hPa 0,0 l/m 0,0 km/h NO -3,7 C 1,0 C 0,0 km/h
10.02.2015 19:00 -0,5 C 77 % 1025,6 hPa 0,0 l/m 0,0 km/h NO -4,0 C -0,5 C 0,0 km/h
10.02.2015 20:00 -1,3 C 81 % 1025,6 hPa 0,0 l/m 0,0 km/h NO -4,1 C -1,3 C 0,0 km/h
10.02.2015 21:00 -2,4 C 82 % 1025,3 hPa 0,0 l/m 0,0 km/h NO -5,0 C -2,4 C 0,0 km/h
10.02.2015 22:00 -2,2 C 84 % 1025,0 hPa 0,0 l/m 0,0 km/h NO -4,5 C -2,2 C 0,0 km/h
10.02.2015 23:00 -3,0 C 85 % 1024,5 hPa 0,0 l/m 0,0 km/h S-SO -5,2 C -3,0 C 0,0 km/h
11.02.2015 00:00 -2,8 C 86 % 1024,2 hPa 0,0 l/m 0,0 km/h S-SO -4,8 C -2,8 C 0,0 km/h
11.02.2015 01:00 -3,4 C 86 % 1024,0 hPa 0,0 l/m 0,0 km/h SO -5,4 C -3,4 C 0,0 km/h
11.02.2015 02:00 -3,5 C 86 % 1023,7 hPa 0,0 l/m 0,0 km/h O-SO -5,5 C -3,5 C 0,0 km/h
11.02.2015 03:00 -3,9 C 86 % 1023,4 hPa 0,0 l/m 0,0 km/h O-SO -5,9 C -3,9 C 0,0 km/h
11.02.2015 04:00 -4,2 C 87 % 1023,3 hPa 0,0 l/m 0,0 km/h O-SO -6,0 C -4,2 C 0,0 km/h
11.02.2015 05:00 -4,4 C 87 % 1023,2 hPa 0,0 l/m 0,0 km/h O-SO -6,2 C -4,4 C 0,0 km/h
11.02.2015 06:00 -5,1 C 87 % 1023,3 hPa 0,0 l/m 0,0 km/h O-SO -6,9 C -5,1 C 0,0 km/h
11.02.2015 07:00 -4,8 C 87 % 1023,7 hPa 0,0 l/m 0,0 km/h O -6,6 C -4,8 C 0,0 km/h
11.02.2015 08:00 -3,4 C 87 % 1024,3 hPa 0,0 l/m 0,0 km/h O -5,2 C -3,4 C 0,0 km/h
11.02.2015 09:00 4,2 C 86 % 1024,1 hPa 0,0 l/m 0,0 km/h W 2,1 C 4,2 C 0,0 km/h
11.02.2015 10:00 7,4 C 71 % 1024,0 hPa 0,0 l/m 0,0 km/h W 2,5 C 7,4 C 0,0 km/h
11.02.2015 11:00 10,0 C 63 % 1023,7 hPa 0,0 l/m 3,9 km/h W 3,3 C 10,0 C 2,2 km/h
11.02.2015 12:00 8,5 C 65 % 1023,1 hPa 0,0 l/m 0,0 km/h W 2,3 C 8,5 C 0,0 km/h
11.02.2015 13:00 8,9 C 63 % 1022,1 hPa 0,0 l/m 0,0 km/h W-SW 2,2 C 8,9 C 0,0 km/h
11.02.2015 14:00 10,4 C 60 % 1021,6 hPa 0,0 l/m 0,0 km/h W 3,0 C 10,4 C 0,0 km/h
11.02.2015 15:00 12,4 C 54 % 1021,0 hPa 0,0 l/m 0,0 km/h NW 3,4 C 12,4 C 0,0 km/h
11.02.2015 16:00 12,3 C 53 % 1020,9 hPa 0,0 l/m 0,0 km/h NW 3,0 C 12,3 C 0,0 km/h
11.02.2015 17:00 3,4 C 64 % 1021,0 hPa 0,0 l/m 0,0 km/h NW -2,7 C 3,4 C 0,0 km/h
11.02.2015 18:00 -0,2 C 77 % 1021,1 hPa 0,0 l/m 0,0 km/h NW -3,7 C -0,2 C 0,0 km/h
11.02.2015 19:00 -1,2 C 81 % 1021,1 hPa 0,0 l/m 0,0 km/h NW -4,0 C -1,2 C 0,0 km/h
11.02.2015 20:00 -1,9 C 83 % 1021,0 hPa 0,0 l/m 0,0 km/h N-NW -4,4 C -1,9 C 0,0 km/h
11.02.2015 21:00 -2,1 C 85 % 1021,0 hPa 0,0 l/m 0,0 km/h N-NW -4,3 C -2,1 C 0,0 km/h
11.02.2015 22:00 -2,9 C 85 % 1020,9 hPa 0,0 l/m 0,0 km/h N-NW -5,1 C -2,9 C 0,0 km/h
11.02.2015 23:00 -2,8 C 86 % 1020,9 hPa 0,0 l/m 0,0 km/h N-NW -4,8 C -2,8 C 0,0 km/h
12.02.2015 00:00 -2,9 C 86 % 1021,0 hPa 0,0 l/m 0,0 km/h N-NW -4,9 C -2,9 C 0,0 km/h
12.02.2015 01:00 -3,9 C 86 % 1020,8 hPa 0,0 l/m 0,0 km/h N-NW -5,9 C -3,9 C 0,0 km/h
12.02.2015 02:00 -3,9 C 87 % 1020,6 hPa 0,0 l/m 0,0 km/h N-NW -5,7 C -3,9 C 0,0 km/h
12.02.2015 03:00 -3,9 C 87 % 1020,2 hPa 0,0 l/m 0,0 km/h N-NW -5,7 C -3,9 C 0,0 km/h
12.02.2015 04:00 -4,1 C 87 % 1019,9 hPa 0,0 l/m 0,0 km/h N-NW -5,9 C -4,1 C 0,0 km/h
12.02.2015 05:00 -4,2 C 87 % 1020,2 hPa 0,0 l/m 0,0 km/h N-NW -6,0 C -4,2 C 0,0 km/h
12.02.2015 06:00 -5,1 C 87 % 1020,0 hPa 0,0 l/m 0,0 km/h N-NW -6,9 C -5,1 C 0,0 km/h
12.02.2015 07:00 -4,6 C 87 % 1020,5 hPa 0,0 l/m 0,0 km/h N-NW -6,4 C -4,6 C 0,0 km/h
12.02.2015 08:00 -3,2 C 87 % 1020,9 hPa 0,0 l/m 0,0 km/h N-NW -5,0 C -3,2 C 0,0 km/h
12.02.2015 09:00 -1,5 C 87 % 1020,9 hPa 0,0 l/m 0,0 km/h W-NW -3,4 C -1,5 C 0,0 km/h
12.02.2015 10:00 2,8 C 85 % 1020,9 hPa 0,0 l/m 0,0 km/h NW 0,5 C 2,8 C 0,0 km/h
12.02.2015 11:00 3,1 C 79 % 1020,9 hPa 0,0 l/m 0,0 km/h N-NO -0,2 C 3,1 C 0,0 km/h
12.02.2015 12:00 2,8 C 81 % 1020,1 hPa 0,0 l/m 0,0 km/h N -0,1 C 2,8 C 0,0 km/h
12.02.2015 13:00 2,6 C 81 % 1020,1 hPa 0,0 l/m 0,0 km/h N-NO -0,3 C 2,6 C 0,0 km/h
12.02.2015 14:00 2,9 C 81 % 1019,4 hPa 0,0 l/m 0,0 km/h W-NW -0,0 C 2,9 C 0,0 km/h
12.02.2015 15:00 1,9 C 83 % 1019,3 hPa 0,0 l/m 0,0 km/h W -0,7 C 1,9 C 0,0 km/h
12.02.2015 16:00 0,5 C 85 % 1019,3 hPa 0,0 l/m 0,0 km/h W -1,7 C 0,5 C 0,0 km/h
12.02.2015 17:00 -0,6 C 86 % 1019,4 hPa 0,0 l/m 0,0 km/h S-SW -2,6 C -0,6 C 0,0 km/h
12.02.2015 18:00 -0,9 C 87 % 1019,8 hPa 0,0 l/m 0,0 km/h W -2,8 C -0,9 C 0,0 km/h
12.02.2015 19:00 -1,1 C 87 % 1019,8 hPa 0,0 l/m 0,0 km/h W -3,0 C -1,1 C 0,0 km/h
12.02.2015 20:00 -1,4 C 87 % 1020,0 hPa 0,0 l/m 0,0 km/h W -3,3 C -1,4 C 0,0 km/h
12.02.2015 21:00 -1,6 C 87 % 1019,9 hPa 0,0 l/m 0,0 km/h W-NW -3,5 C -1,6 C 0,0 km/h
12.02.2015 22:00 -1,8 C 87 % 1019,7 hPa 0,0 l/m 0,0 km/h W-NW -3,7 C -1,8 C 0,0 km/h
12.02.2015 23:00 -2,2 C 87 % 1019,5 hPa 0,0 l/m 0,0 km/h W-NW -4,1 C -2,2 C 0,0 km/h
13.02.2015 00:00 -2,4 C 87 % 1019,5 hPa 0,0 l/m 0,0 km/h W-NW -4,3 C -2,4 C 0,0 km/h
13.02.2015 01:00 -2,7 C 87 % 1019,1 hPa 0,0 l/m 0,0 km/h W-NW -4,6 C -2,7 C 0,0 km/h
13.02.2015 02:00 -2,9 C 87 % 1018,8 hPa 0,0 l/m 0,0 km/h W-NW -4,8 C -2,9 C 0,0 km/h
13.02.2015 03:00 -3,6 C 87 % 1018,7 hPa 0,0 l/m 0,0 km/h W-NW -5,4 C -3,6 C 0,0 km/h
13.02.2015 04:00 -3,7 C 88 % 1018,3 hPa 0,0 l/m 0,0 km/h W-NW -5,4 C -3,7 C 0,0 km/h
13.02.2015 05:00 -4,2 C 87 % 1018,3 hPa 0,0 l/m 0,0 km/h W-NW -6,0 C -4,2 C 0,0 km/h
13.02.2015 06:00 -4,1 C 87 % 1018,1 hPa 0,0 l/m 0,0 km/h W-NW -5,9 C -4,1 C 0,0 km/h
13.02.2015 07:00 -4,2 C 87 % 1018,3 hPa 0,0 l/m 0,0 km/h W-NW -6,0 C -4,2 C 0,0 km/h
13.02.2015 08:00 -3,2 C 87 % 1018,1 hPa 0,0 l/m 0,0 km/h W-NW -5,0 C -3,2 C 0,0 km/h
13.02.2015 09:00 -0,5 C 86 % 1017,6 hPa 0,0 l/m 0,0 km/h W-NW -2,5 C -0,5 C 0,0 km/h
13.02.2015 10:00 0,7 C 87 % 1017,3 hPa 0,0 l/m 0,0 km/h W -1,2 C 0,7 C 0,0 km/h
13.02.2015 11:00 7,5 C 77 % 1016,6 hPa 0,0 l/m 0,0 km/h W 3,7 C 7,5 C 0,0 km/h
13.02.2015 12:00 9,3 C 68 % 1015,7 hPa 0,0 l/m 0,0 km/h W 3,7 C 9,3 C 0,0 km/h
13.02.2015 13:00 10,1 C 69 % 1014,6 hPa 0,0 l/m 0,0 km/h W-NW 4,7 C 10,1 C 0,0 km/h
13.02.2015 14:00 12,1 C 65 % 1013,8 hPa 0,0 l/m 0,0 km/h W-NW 5,7 C 12,1 C 0,0 km/h
13.02.2015 15:00 14,1 C 60 % 1013,2 hPa 0,0 l/m 0,0 km/h W-NW 6,5 C 14,1 C 0,0 km/h
13.02.2015 16:00 9,5 C 67 % 1012,9 hPa 0,0 l/m 0,0 km/h NW 3,7 C 9,5 C 0,0 km/h
13.02.2015 17:00 4,2 C 76 % 1012,6 hPa 0,0 l/m 0,0 km/h NW 0,4 C 4,2 C 0,0 km/h
13.02.2015 18:00 1,6 C 81 % 1012,7 hPa 0,0 l/m 0,0 km/h N-NW -1,3 C 1,6 C 0,0 km/h
13.02.2015 19:00 2,9 C 83 % 1012,3 hPa 0,0 l/m 0,0 km/h N-NW 0,3 C 2,9 C 0,0 km/h
13.02.2015 20:00 0,0 C 85 % 1012,3 hPa 0,0 l/m 0,0 km/h N-NW -2,2 C 0,0 C 0,0 km/h
13.02.2015 21:00 -0,7 C 86 % 1011,8 hPa 0,0 l/m 0,0 km/h O-SO -2,7 C -0,7 C 0,0 km/h
13.02.2015 22:00 0,1 C 86 % 1010,9 hPa 0,0 l/m 0,0 km/h N-NW -2,0 C 0,1 C 0,0 km/h
13.02.2015 23:00 -0,7 C 87 % 1011,3 hPa 0,0 l/m 0,0 km/h W-NW -2,6 C -0,7 C 0,0 km/h
14.02.2015 00:00 -0,4 C 87 % 1010,8 hPa 0,0 l/m 0,0 km/h N-NO -2,3 C -0,4 C 0,0 km/h
14.02.2015 01:00 0,2 C 87 % 1009,9 hPa 0,0 l/m 0,0 km/h N-NO -1,7 C 0,2 C 0,0 km/h
14.02.2015 02:00 -0,7 C 87 % 1009,7 hPa 0,0 l/m 0,0 km/h W-NW -2,6 C -0,7 C 0,0 km/h
14.02.2015 03:00 -0,1 C 87 % 1009,6 hPa 0,0 l/m 0,0 km/h NO -2,0 C -0,1 C 0,0 km/h
14.02.2015 04:00 2,2 C 86 % 1009,4 hPa 0,0 l/m 0,0 km/h SO 0,1 C 2,2 C 0,0 km/h
14.02.2015 05:00 5,5 C 86 % 1009,0 hPa 2,3 l/m 4,5 km/h O-NO 3,3 C 5,5 C 2,5 km/h
14.02.2015 06:00 4,5 C 87 % 1008,4 hPa 0,8 l/m 0,0 km/h SO 2,5 C 4,5 C 0,0 km/h
14.02.2015 07:00 4,1 C 86 % 1008,5 hPa 0,0 l/m 5,8 km/h SO 2,0 C 4,1 C 3,2 km/h
14.02.2015 08:00 4,2 C 86 % 1008,5 hPa 0,0 l/m 0,0 km/h S-SO 2,1 C 4,2 C 0,0 km/h
14.02.2015 09:00 5,9 C 86 % 1009,0 hPa 0,0 l/m 0,0 km/h SO 3,7 C 5,9 C 0,0 km/h
14.02.2015 10:00 7,9 C 86 % 1008,6 hPa 0,0 l/m 0,0 km/h SO 5,7 C 7,9 C 0,0 km/h
14.02.2015 11:00 8,4 C 85 % 1008,3 hPa 0,0 l/m 13,6 km/h O-SO 6,0 C 3,9 C 7,6 km/h
14.02.2015 12:00 11,3 C 78 % 1006,9 hPa 0,0 l/m 0,0 km/h SO 7,6 C 11,3 C 0,0 km/h
14.02.2015 13:00 14,4 C 68 % 1005,7 hPa 0,0 l/m 22,7 km/h W-SW 8,6 C 8,3 C 12,6 km/h
14.02.2015 14:00 17,4 C 51 % 1005,1 hPa 0,0 l/m 11,7 km/h W 7,2 C 15,1 C 6,5 km/h
14.02.2015 15:00 12,4 C 59 % 1004,7 hPa 0,0 l/m 0,0 km/h SO 4,6 C 12,4 C 0,0 km/h
14.02.2015 16:00 14,8 C 53 % 1004,3 hPa 0,0 l/m 0,0 km/h O-SO 5,3 C 14,8 C 0,0 km/h
14.02.2015 17:00 6,9 C 69 % 1004,6 hPa 0,0 l/m 0,0 km/h O-NO 1,6 C 6,9 C 0,0 km/h
14.02.2015 18:00 3,4 C 77 % 1005,4 hPa 0,0 l/m 0,0 km/h N-NO -0,2 C 3,4 C 0,0 km/h
14.02.2015 19:00 2,5 C 84 % 1006,6 hPa 0,0 l/m 0,0 km/h N-NO 0,1 C 2,5 C 0,0 km/h
14.02.2015 20:00 2,1 C 86 % 1007,3 hPa 0,0 l/m 0,0 km/h O-SO 0,0 C 2,1 C 0,0 km/h
14.02.2015 21:00 1,6 C 86 % 1007,1 hPa 0,0 l/m 0,0 km/h O -0,5 C 1,6 C 0,0 km/h
14.02.2015 22:00 1,4 C 87 % 1007,0 hPa 0,0 l/m 0,0 km/h O-SO -0,5 C 1,4 C 0,0 km/h
14.02.2015 23:00 1,5 C 87 % 1006,7 hPa 0,0 l/m 0,0 km/h O-SO -0,4 C 1,5 C 0,0 km/h
15.02.2015 00:00 1,2 C 87 % 1006,7 hPa 0,0 l/m 0,0 km/h O-SO -0,7 C 1,2 C 0,0 km/h
15.02.2015 01:00 0,1 C 87 % 1006,6 hPa 0,0 l/m 0,0 km/h N-NO -1,8 C 0,1 C 0,0 km/h
15.02.2015 02:00 0,4 C 87 % 1006,6 hPa 0,0 l/m 0,0 km/h N-NO -1,5 C 0,4 C 0,0 km/h
15.02.2015 03:00 0,7 C 87 % 1007,0 hPa 0,0 l/m 0,0 km/h N-NO -1,2 C 0,7 C 0,0 km/h
15.02.2015 04:00 0,4 C 87 % 1006,7 hPa 0,0 l/m 0,0 km/h N-NO -1,5 C 0,4 C 0,0 km/h
15.02.2015 05:00 0,5 C 87 % 1007,3 hPa 0,0 l/m 0,0 km/h NW -1,4 C 0,5 C 0,0 km/h
15.02.2015 06:00 0,2 C 87 % 1007,1 hPa 0,0 l/m 0,0 km/h W-NW -1,7 C 0,2 C 0,0 km/h
15.02.2015 07:00 0,1 C 86 % 1007,8 hPa 0,0 l/m 0,6 km/h W-NW -2,0 C 0,1 C 0,4 km/h
15.02.2015 08:00 0,1 C 86 % 1008,7 hPa 0,0 l/m 0,0 km/h S-SW -2,0 C 0,1 C 0,0 km/h
15.02.2015 09:00 1,1 C 85 % 1008,8 hPa 0,0 l/m 0,0 km/h W-SW -1,1 C 1,1 C 0,0 km/h
15.02.2015 10:00 1,4 C 86 % 1009,0 hPa 0,0 l/m 0,0 km/h W-NW -0,7 C 1,4 C 0,0 km/h
15.02.2015 11:00 1,9 C 86 % 1009,2 hPa 0,0 l/m 0,0 km/h W-NW -0,2 C 1,9 C 0,0 km/h
15.02.2015 12:00 1,9 C 87 % 1009,2 hPa 0,0 l/m 0,0 km/h W -0,0 C 1,9 C 0,0 km/h
15.02.2015 13:00 1,5 C 87 % 1009,7 hPa 0,0 l/m 0,0 km/h N -0,4 C 1,5 C 0,0 km/h
15.02.2015 14:00 1,4 C 87 % 1009,4 hPa 0,0 l/m 0,0 km/h N-NW -0,5 C 1,4 C 0,0 km/h
15.02.2015 15:00 1,8 C 87 % 1009,8 hPa 0,0 l/m 0,0 km/h NW -0,1 C 1,8 C 0,0 km/h
15.02.2015 16:00 1,6 C 87 % 1009,9 hPa 0,0 l/m 0,0 km/h W-NW -0,3 C 1,6 C 0,0 km/h
15.02.2015 17:00 1,0 C 87 % 1010,5 hPa 0,0 l/m 0,0 km/h W-NW -0,9 C 1,0 C 0,0 km/h
15.02.2015 18:00 0,8 C 87 % 1011,1 hPa 0,0 l/m 0,0 km/h W-NW -1,1 C 0,8 C 0,0 km/h
15.02.2015 19:00 0,8 C 87 % 1012,0 hPa 0,0 l/m 0,0 km/h W -1,1 C 0,8 C 0,0 km/h
15.02.2015 20:00 0,7 C 87 % 1012,6 hPa 0,0 l/m 0,0 km/h W -1,2 C 0,7 C 0,0 km/h
15.02.2015 21:00 0,6 C 87 % 1012,9 hPa 0,0 l/m 0,0 km/h W -1,3 C 0,6 C 0,0 km/h
15.02.2015 22:00 0,6 C 87 % 1013,9 hPa 0,0 l/m 1,9 km/h W -1,3 C 0,6 C 1,1 km/h
15.02.2015 23:00 0,4 C 87 % 1013,9 hPa 0,0 l/m 0,0 km/h W -1,5 C 0,4 C 0,0 km/h
Min-Datum _ 11.02.15 10.02.15 14.02.15 - 09.02.15 - 11.02.15 09.02.15 09.02.15
_ Min-Zeit 06:53 16:53 16:53 - 01:53 - 06:53 00:53 01:53
Minimum _ -5,1 C 44 % 1004,3 hPa - 0,0 km/h - -6,9 C -15,0 C 0,0 km/h
Max-Datum _ 14.02.15 13.02.15 09.02.15 14.02.15 14.02.15 - 14.02.15 10.02.15 14.02.15
_ Max-Zeit 14:53 04:53 05:53 05:53 13:53 - 13:53 15:53 13:53
Maximum _ 17,4 C 88 % 1029,9 hPa 2,3 l/m 22,7 km/h
W-SW
- 8,6 C 16,4 C 12,6 km/h
W-SW
Durchschnitt _ 1,7 C 81 % 1018,6 hPa #3,9 l/m 0,5 km/h W-NW -1,5 C 1,5 C 0,3 km/h
www.sexauwetter.de